Time;durP1;ratioP1;P1;durP2;ratioP2;P2;SDS_P1;SDS_P2;PMS_P1;PMS_P2;Temp;Humidity;BMP_temperature;BMP_pressure;BME280_temperature;BME280_humidity;BME280_pressure;Samples;Min_cycle;Max_cycle;Signal;HPM_P1;HPM_P2
2022/12/29 00:02:22;;;;;;;30.17;6.88;;;10.20;99.90;;;;;;5101078;28;20539;-75
2022/12/29 00:04:50;;;;;;;39.03;11.65;;;10.30;99.90;;;;;;5092971;28;20059;-75
2022/12/29 00:07:16;;;;;;;24.42;5.57;;;10.20;99.90;;;;;;5096267;28;20486;-74
2022/12/29 00:09:42;;;;;;;21.73;4.38;;;10.20;99.90;;;;;;5091040;28;20503;-74
2022/12/29 00:12:08;;;;;;;25.67;7.40;;;10.30;99.90;;;;;;5088702;28;20020;-75
2022/12/29 00:17:17;;;;;;;25.17;5.88;;;10.30;99.90;;;;;;5096179;28;20445;-74
2022/12/29 00:36:32;;;;;;;22.55;2.78;;;10.10;99.90;;;;;;5099845;28;20043;-76
2022/12/29 00:44:38;;;;;;;24.60;5.78;;;9.90;99.90;;;;;;5104030;28;20081;-74
2022/12/29 00:47:04;;;;;;;21.80;2.55;;;9.90;99.90;;;;;;5091906;28;20012;-74
2022/12/29 00:49:31;;;;;;;23.70;3.53;;;10.00;99.90;;;;;;5101137;28;20463;-75
2022/12/29 00:52:05;;;;;;;28.20;7.32;;;10.10;99.90;;;;;;5086635;28;20036;-76
2022/12/29 00:54:33;;;;;;;29.30;7.30;;;10.20;99.90;;;;;;5081307;28;20035;-75
2022/12/29 00:56:59;;;;;;;20.75;7.10;;;10.20;99.90;;;;;;5094401;28;20123;-76
2022/12/29 00:59:25;;;;;;;14.65;2.72;;;10.20;99.90;;;;;;5101474;28;20107;-75
2022/12/29 01:01:52;;;;;;;15.85;3.95;;;10.20;99.90;;;;;;5089283;28;20024;-75
2022/12/29 01:04:18;;;;;;;22.45;3.60;;;10.20;99.90;;;;;;5091838;28;20051;-74
2022/12/29 01:06:47;;;;;;;23.95;3.15;;;10.10;99.90;;;;;;5095186;28;20063;-75
2022/12/29 01:11:58;;;;;;;26.65;4.65;;;10.00;99.90;;;;;;5087131;28;20494;-75
2022/12/29 01:14:24;;;;;;;22.58;3.72;;;10.00;99.90;;;;;;5094685;28;20146;-75
2022/12/29 01:16:51;;;;;;;19.83;3.78;;;10.10;99.90;;;;;;5099523;28;20062;-74
2022/12/29 01:19:18;;;;;;;29.27;9.68;;;10.10;99.90;;;;;;5093137;28;20043;-75
2022/12/29 01:21:43;;;;;;;28.15;3.65;;;10.10;99.90;;;;;;5097721;28;20039;-76
2022/12/29 01:24:18;;;;;;;26.10;7.22;;;10.20;99.90;;;;;;5096859;28;20024;-74
2022/12/29 01:26:44;;;;;;;24.13;3.85;;;10.30;99.90;;;;;;5086490;28;20123;-74
2022/12/29 01:29:10;;;;;;;28.98;9.73;;;10.20;99.90;;;;;;5092311;28;20107;-76
2022/12/29 01:31:36;;;;;;;20.88;4.72;;;10.20;99.90;;;;;;5082757;28;20028;-75
2022/12/29 01:34:03;;;;;;;29.67;5.32;;;10.10;99.90;;;;;;5092817;28;20023;-75
2022/12/29 01:36:29;;;;;;;29.00;4.70;;;10.20;99.90;;;;;;5102271;28;20028;-74
2022/12/29 01:38:55;;;;;;;22.38;5.35;;;10.10;99.90;;;;;;5095746;28;20020;-76
2022/12/29 01:41:22;;;;;;;22.02;4.03;;;10.10;99.90;;;;;;5093126;28;20100;-75
2022/12/29 01:43:52;;;;;;;20.95;3.13;;;10.00;99.90;;;;;;5102205;28;20067;-75
2022/12/29 01:49:27;;;;;;;14.40;3.42;;;9.90;99.90;;;;;;5086974;28;20031;-75
2022/12/29 01:52:07;;;;;;;20.92;3.63;;;9.80;99.90;;;;;;5075686;28;20387;-75
2022/12/29 01:54:39;;;;;;;28.35;4.15;;;9.90;99.90;;;;;;5086354;28;20034;-75
2022/12/29 01:57:12;;;;;;;16.67;3.10;;;9.90;99.90;;;;;;5080764;28;20036;-74
2022/12/29 01:59:49;;;;;;;23.52;2.90;;;10.00;99.90;;;;;;5087494;28;20390;-74
2022/12/29 02:02:15;;;;;;;22.48;3.85;;;10.10;99.90;;;;;;5088676;28;20024;-74
2022/12/29 02:04:45;;;;;;;21.80;3.70;;;10.10;99.90;;;;;;5080337;28;20031;-74
2022/12/29 02:07:19;;;;;;;24.75;3.72;;;10.20;99.90;;;;;;5087078;28;20028;-74
2022/12/29 02:09:49;;;;;;;23.00;4.00;;;10.20;99.90;;;;;;5088505;28;20082;-74
2022/12/29 02:12:16;;;;;;;21.30;4.28;;;10.10;99.90;;;;;;5087295;28;20078;-74
2022/12/29 02:14:42;;;;;;;20.58;3.60;;;9.90;99.90;;;;;;5085611;28;20089;-75
2022/12/29 02:17:13;;;;;;;17.90;2.72;;;9.70;99.90;;;;;;5083448;28;20044;-75
2022/12/29 02:19:51;;;;;;;21.65;4.43;;;9.60;99.90;;;;;;5078043;28;20464;-74
2022/12/29 02:22:30;;;;;;;18.45;2.53;;;9.70;99.90;;;;;;5089659;28;20036;-75
2022/12/29 02:25:28;;;;;;;23.38;3.88;;;9.70;99.90;;;;;;5076606;28;20028;-75
2022/12/29 02:28:11;;;;;;;21.48;2.67;;;9.70;99.90;;;;;;5006139;28;20084;-75
2022/12/29 02:30:44;;;;;;;23.95;3.22;;;9.60;99.90;;;;;;5022431;28;20056;-75
2022/12/29 02:33:15;;;;;;;;;;;9.80;99.90;;;;;;5020557;28;20021;-74
2022/12/29 02:35:49;;;;;;;22.92;5.03;;;9.90;99.90;;;;;;5027494;28;19909;-74
2022/12/29 02:38:20;;;;;;;30.02;3.95;;;9.90;99.90;;;;;;5013989;28;20057;-76
2022/12/29 02:40:56;;;;;;;26.90;2.85;;;9.90;99.90;;;;;;5021633;28;20033;-76
2022/12/29 02:43:40;;;;;;;15.60;3.05;;;9.80;99.90;;;;;;5026184;28;20053;-74
2022/12/29 02:46:06;;;;;;;12.85;3.13;;;9.70;99.90;;;;;;5009106;28;20041;-74
2022/12/29 02:48:40;;;;;;;16.27;3.95;;;9.60;99.90;;;;;;5033246;28;20087;-76
2022/12/29 02:51:23;;;;;;;11.60;2.05;;;9.60;99.90;;;;;;5044724;28;20413;-75
2022/12/29 02:56:37;;;;;;;15.82;3.03;;;9.60;99.90;;;;;;5047478;28;20435;-76
2022/12/29 02:59:03;;;;;;;16.05;2.67;;;9.70;99.90;;;;;;5036270;28;20048;-73
2022/12/29 03:01:31;;;;;;;20.92;4.13;;;9.60;99.90;;;;;;5047330;28;20037;-74
2022/12/29 03:04:21;;;;;;;21.65;4.25;;;9.60;99.90;;;;;;5070132;28;20048;-74
2022/12/29 03:07:02;;;;;;;20.70;3.88;;;9.60;99.90;;;;;;5087792;28;20060;-75
2022/12/29 03:10:01;;;;;;;25.90;4.35;;;9.60;99.90;;;;;;5079045;28;20020;-74
2022/12/29 03:18:22;;;;;;;18.00;3.10;;;9.80;99.90;;;;;;5083235;28;20101;-75
2022/12/29 03:20:48;;;;;;;25.13;5.50;;;9.70;99.90;;;;;;5089589;28;20020;-76
2022/12/29 03:23:14;;;;;;;47.70;5.30;;;9.70;99.90;;;;;;5090595;28;20086;-76
2022/12/29 03:25:47;;;;;;;28.33;4.47;;;9.80;99.90;;;;;;5085459;28;20028;-75
2022/12/29 03:28:47;;;;;;;23.92;3.28;;;9.80;99.90;;;;;;5089069;28;20553;-74
2022/12/29 03:31:14;;;;;;;23.25;3.75;;;9.90;99.90;;;;;;5082710;28;20471;-74
2022/12/29 03:33:41;;;;;;;24.75;3.75;;;9.90;99.90;;;;;;5092167;28;20039;-75
2022/12/29 03:36:11;;;;;;;30.45;4.15;;;10.10;99.90;;;;;;5089759;28;20027;-74
2022/12/29 03:38:46;;;;;;;26.00;4.65;;;10.20;99.90;;;;;;5093640;28;20525;-75
2022/12/29 03:41:16;;;;;;;39.78;7.32;;;10.20;99.90;;;;;;5090017;28;20028;-73
2022/12/29 03:43:42;;;;;;;24.02;3.92;;;10.30;99.90;;;;;;5091642;28;20056;-74
2022/12/29 03:46:08;;;;;;;22.92;4.93;;;10.40;99.90;;;;;;5091096;28;20123;-74
2022/12/29 03:48:34;;;;;;;25.33;3.50;;;10.40;99.90;;;;;;5093448;28;20024;-75
2022/12/29 03:51:00;;;;;;;23.85;3.90;;;10.30;99.90;;;;;;5086062;28;20421;-74
2022/12/29 03:53:25;;;;;;;23.25;4.70;;;10.30;99.90;;;;;;5092113;28;20500;-75
2022/12/29 03:55:51;;;;;;;26.17;4.68;;;10.20;99.90;;;;;;5090417;28;20016;-75
2022/12/29 03:58:17;;;;;;;25.67;3.78;;;10.30;99.90;;;;;;5092751;28;20510;-74
2022/12/29 04:00:43;;;;;;;20.25;4.30;;;10.40;99.90;;;;;;5085282;28;20514;-73
2022/12/29 04:03:08;;;;;;;20.75;3.75;;;10.40;99.90;;;;;;5082647;28;20406;-76
2022/12/29 04:05:34;;;;;;;20.20;4.13;;;10.40;99.90;;;;;;5085840;28;20024;-75
2022/12/29 04:08:00;;;;;;;25.63;4.03;;;10.50;99.90;;;;;;5090380;28;20085;-75
2022/12/29 04:10:25;;;;;;;21.45;3.75;;;10.50;99.90;;;;;;5088261;28;20024;-74
2022/12/29 04:12:51;;;;;;;25.75;3.53;;;10.50;99.90;;;;;;5086118;28;20030;-75
2022/12/29 04:15:17;;;;;;;26.20;4.53;;;10.50;99.90;;;;;;5096083;28;20035;-74
2022/12/29 04:17:42;;;;;;;18.02;2.80;;;10.40;99.90;;;;;;5101196;28;20503;-75
2022/12/29 04:23:00;;;;;;;21.13;3.67;;;10.30;99.90;;;;;;5098007;28;20031;-75
2022/12/29 04:25:26;;;;;;;15.88;3.47;;;10.30;99.90;;;;;;5090031;28;20093;-76
2022/12/29 04:27:51;;;;;;;13.65;2.47;;;10.30;99.90;;;;;;5093004;28;20475;-75
2022/12/29 04:30:17;;;;;;;29.08;4.38;;;10.40;99.90;;;;;;5099155;28;20028;-74
2022/12/29 04:32:43;;;;;;;17.98;3.33;;;10.40;99.90;;;;;;5095119;28;20077;-74
2022/12/29 04:45:21;;;;;;;32.65;6.28;;;10.20;99.90;;;;;;5057806;28;20059;-70
2022/12/29 04:48:17;;;;;;;33.72;4.47;;;9.50;99.90;;;;;;5100006;22;20495;-70
2022/12/29 04:57:40;;;;;;;30.20;5.05;;;9.20;99.90;;;;;;5100066;28;20046;-77
2022/12/29 05:00:08;;;;;;;33.67;6.97;;;9.40;99.90;;;;;;5097977;28;20380;-79
2022/12/29 05:03:11;;;;;;;35.30;6.22;;;9.30;99.90;;;;;;5105615;28;20077;-80
2022/12/29 05:05:38;;;;;;;32.05;6.32;;;9.50;99.90;;;;;;5098605;28;20437;-77
2022/12/29 05:08:04;;;;;;;38.80;7.03;;;9.50;99.90;;;;;;5089546;28;20469;-80
2022/12/29 05:10:45;;;;;;;29.95;4.75;;;9.50;99.90;;;;;;5103052;28;20114;-79
2022/12/29 05:13:11;;;;;;;34.53;5.32;;;9.60;99.90;;;;;;5102965;28;20024;-79
2022/12/29 05:15:37;;;;;;;26.45;4.68;;;9.60;99.90;;;;;;5105342;28;20047;-78
2022/12/29 05:18:04;;;;;;;26.35;5.68;;;9.80;99.90;;;;;;5103777;28;20104;-79
2022/12/29 05:20:35;;;;;;;31.48;4.30;;;9.80;99.90;;;;;;5111773;28;20023;-77
2022/12/29 05:23:01;;;;;;;35.78;5.30;;;9.80;99.90;;;;;;5104377;28;20030;-76
2022/12/29 05:25:27;;;;;;;34.15;4.88;;;9.90;99.90;;;;;;5111028;28;20379;-78
2022/12/29 05:27:53;;;;;;;31.38;3.55;;;9.90;99.90;;;;;;5100242;28;20088;-78
2022/12/29 05:30:34;;;;;;;28.42;4.13;;;9.90;99.90;;;;;;5081875;28;20107;-80
2022/12/29 05:32:59;;;;;;;34.63;5.10;;;9.80;99.90;;;;;;5105080;28;20027;-77
2022/12/29 05:35:26;;;;;;;28.00;5.43;;;9.80;99.90;;;;;;5101669;28;20028;-76
2022/12/29 05:37:51;;;;;;;29.27;4.60;;;9.90;99.90;;;;;;5101709;28;20395;-77
2022/12/29 05:40:17;;;;;;;22.40;3.88;;;9.90;99.90;;;;;;5103507;28;20028;-76
2022/12/29 05:42:43;;;;;;;23.33;3.75;;;10.00;99.90;;;;;;5099907;28;20077;-76
2022/12/29 05:45:09;;;;;;;36.70;4.97;;;9.90;99.90;;;;;;5102869;28;20035;-76
2022/12/29 05:47:35;;;;;;;24.73;3.72;;;9.80;99.90;;;;;;5104190;28;20059;-75
2022/12/29 05:50:01;;;;;;;26.02;4.65;;;9.80;99.90;;;;;;5097809;28;20020;-75
2022/12/29 05:52:27;;;;;;;25.33;4.40;;;9.80;99.90;;;;;;5099300;28;20040;-76
2022/12/29 05:54:52;;;;;;;37.67;5.85;;;9.80;99.90;;;;;;5104547;28;20027;-76
2022/12/29 05:57:18;;;;;;;27.58;4.07;;;9.90;99.90;;;;;;5109921;28;20548;-76
2022/12/29 05:59:44;;;;;;;28.15;3.83;;;9.90;99.90;;;;;;5102466;28;20058;-75
2022/12/29 06:02:10;;;;;;;24.10;4.30;;;9.90;99.90;;;;;;5107863;28;20024;-74
2022/12/29 06:04:35;;;;;;;34.28;6.60;;;9.90;99.90;;;;;;5079850;28;20458;-75
2022/12/29 06:07:01;;;;;;;26.35;4.20;;;9.90;99.90;;;;;;5100902;28;20023;-76
2022/12/29 06:09:27;;;;;;;24.73;4.80;;;9.90;99.90;;;;;;5104992;28;20498;-76
2022/12/29 06:11:53;;;;;;;24.30;4.25;;;9.90;99.90;;;;;;5102500;28;20514;-75
2022/12/29 06:14:18;;;;;;;16.77;3.60;;;9.90;99.90;;;;;;5108650;28;20540;-75
2022/12/29 06:16:44;;;;;;;19.90;2.83;;;9.80;99.90;;;;;;5109982;28;20031;-75
2022/12/29 06:19:10;;;;;;;20.17;3.53;;;9.80;99.90;;;;;;5106078;28;20027;-75
2022/12/29 06:21:37;;;;;;;19.75;3.33;;;9.80;99.90;;;;;;5105465;28;20050;-76
2022/12/29 06:24:04;;;;;;;17.17;2.42;;;9.70;99.90;;;;;;5104877;28;20550;-74
2022/12/29 06:26:29;;;;;;;10.40;3.13;;;9.60;99.90;;;;;;5109607;28;20016;-76
2022/12/29 06:28:55;;;;;;;20.02;2.30;;;9.60;99.90;;;;;;5107826;28;20015;-76
2022/12/29 06:31:21;;;;;;;12.50;2.42;;;9.50;99.90;;;;;;5102550;28;20026;-76
2022/12/29 06:33:47;;;;;;;15.32;3.22;;;9.40;99.90;;;;;;5102139;28;20107;-75
2022/12/29 06:36:13;;;;;;;18.58;2.40;;;9.40;99.90;;;;;;5092316;28;20024;-75
2022/12/29 06:38:38;;;;;;;12.48;1.60;;;9.30;99.90;;;;;;5110149;28;20027;-76
2022/12/29 06:41:04;;;;;;;13.27;2.10;;;9.30;99.90;;;;;;5107972;28;20027;-74
2022/12/29 06:43:30;;;;;;;12.15;1.10;;;9.20;99.90;;;;;;5100761;28;20495;-75
2022/12/29 06:45:56;;;;;;;14.27;1.92;;;9.10;99.90;;;;;;5102185;28;20026;-75
2022/12/29 06:48:22;;;;;;;11.82;1.58;;;9.10;99.90;;;;;;5109304;28;20130;-75
2022/12/29 06:50:48;;;;;;;12.10;1.30;;;9.10;99.90;;;;;;5103063;28;20026;-75
2022/12/29 06:53:14;;;;;;;9.82;1.75;;;9.10;99.90;;;;;;5107771;28;20023;-76
2022/12/29 06:55:41;;;;;;;8.98;2.60;;;8.90;99.90;;;;;;5096637;28;20055;-75
2022/12/29 06:58:07;;;;;;;11.50;2.17;;;8.90;99.90;;;;;;5097900;28;20032;-75
2022/12/29 07:00:33;;;;;;;13.93;1.88;;;9.00;99.90;;;;;;5109983;28;20038;-75
2022/12/29 07:02:59;;;;;;;8.98;1.50;;;9.00;99.90;;;;;;5100569;28;20077;-75
2022/12/29 07:05:31;;;;;;;9.32;1.48;;;8.90;99.90;;;;;;5099040;28;20050;-75
2022/12/29 07:07:56;;;;;;;;;;;8.90;99.90;;;;;;5101689;28;20034;-75
2022/12/29 07:10:23;;;;;;;15.07;1.95;;;8.90;99.90;;;;;;5101926;28;19908;-75
2022/12/29 07:12:49;;;;;;;13.30;1.83;;;8.90;99.90;;;;;;5106623;28;20039;-74
2022/12/29 07:15:15;;;;;;;9.77;1.33;;;8.90;99.90;;;;;;5098561;28;20524;-76
2022/12/29 07:17:40;;;;;;;10.20;2.03;;;8.70;99.90;;;;;;5109674;28;20130;-75
2022/12/29 07:20:07;;;;;;;6.18;1.05;;;8.60;99.90;;;;;;5096477;28;20099;-76
2022/12/29 07:22:33;;;;;;;12.45;1.60;;;8.60;99.90;;;;;;5107312;28;20032;-76
2022/12/29 07:24:58;;;;;;;8.93;2.03;;;8.60;99.90;;;;;;5098056;28;20027;-76
2022/12/29 07:27:24;;;;;;;6.47;1.08;;;8.60;99.90;;;;;;5105683;28;20441;-75
2022/12/29 07:29:50;;;;;;;10.27;1.08;;;8.60;99.90;;;;;;5107868;28;20019;-76
2022/12/29 07:32:16;;;;;;;6.45;1.02;;;8.60;99.90;;;;;;5105123;28;20032;-76
2022/12/29 07:34:44;;;;;;;6.15;0.93;;;8.50;99.90;;;;;;5102938;28;20028;-75
2022/12/29 07:37:10;;;;;;;8.85;1.02;;;8.40;99.90;;;;;;5099920;28;20039;-75
2022/12/29 07:39:36;;;;;;;9.38;1.77;;;8.40;99.90;;;;;;5108802;28;20050;-75
2022/12/29 07:42:02;;;;;;;5.35;1.42;;;8.40;99.90;;;;;;5100963;28;20077;-76
2022/12/29 07:44:28;;;;;;;14.45;1.92;;;8.40;99.90;;;;;;5089855;28;20020;-74
2022/12/29 07:46:53;;;;;;;5.85;1.02;;;8.50;99.90;;;;;;5107203;28;20371;-73
2022/12/29 07:49:19;;;;;;;12.05;2.33;;;8.40;99.90;;;;;;5075036;28;20047;-75
2022/12/29 07:51:45;;;;;;;9.52;1.30;;;8.30;99.90;;;;;;5103594;28;20076;-75
2022/12/29 07:54:12;;;;;;;10.93;1.80;;;8.30;99.90;;;;;;5089593;28;20567;-75
2022/12/29 07:56:38;;;;;;;12.85;1.58;;;8.20;99.90;;;;;;5107580;28;20387;-75
2022/12/29 07:59:04;;;;;;;9.45;1.40;;;8.10;99.90;;;;;;5107470;28;20174;-76
2022/12/29 08:01:30;;;;;;;8.25;1.00;;;8.10;99.90;;;;;;5096611;28;20095;-75
2022/12/29 08:03:55;;;;;;;7.43;1.20;;;8.20;99.90;;;;;;5112128;27;20390;-74
2022/12/29 08:06:22;;;;;;;11.45;1.30;;;8.30;99.90;;;;;;5106877;27;20035;-75
2022/12/29 08:08:48;;;;;;;11.70;1.30;;;8.30;99.90;;;;;;5100987;28;20057;-74
2022/12/29 08:11:13;;;;;;;8.75;1.15;;;8.20;99.90;;;;;;5092779;28;22008;-74
2022/12/29 08:13:39;;;;;;;17.23;3.22;;;8.20;99.90;;;;;;5107807;27;20023;-75
2022/12/29 08:16:05;;;;;;;13.25;1.60;;;8.30;99.90;;;;;;5107511;27;20497;-77
2022/12/29 08:18:31;;;;;;;7.65;1.60;;;8.20;99.90;;;;;;5101714;28;20035;-76
2022/12/29 08:21:04;;;;;;;8.02;1.33;;;8.20;99.90;;;;;;5101196;28;20024;-75
2022/12/29 08:23:30;;;;;;;17.60;1.95;;;8.20;99.90;;;;;;5098235;28;20476;-74
2022/12/29 08:26:00;;;;;;;9.45;1.48;;;8.30;99.90;;;;;;5095720;28;20034;-74
2022/12/29 08:28:27;;;;;;;12.73;1.58;;;8.30;99.90;;;;;;5096823;28;20394;-76
2022/12/29 08:30:52;;;;;;;13.70;2.60;;;8.40;99.90;;;;;;5101268;28;20031;-76
2022/12/29 08:33:18;;;;;;;10.02;1.50;;;8.40;99.90;;;;;;5108276;27;20388;-77
2022/12/29 08:35:44;;;;;;;8.93;2.00;;;8.50;99.90;;;;;;5104227;28;20376;-76
2022/12/29 08:38:13;;;;;;;10.98;1.40;;;8.50;99.90;;;;;;5097324;28;20042;-76
2022/12/29 08:40:39;;;;;;;9.25;1.70;;;8.60;99.90;;;;;;5107458;28;20020;-76
2022/12/29 08:43:05;;;;;;;19.08;2.58;;;8.50;99.90;;;;;;5102143;28;20048;-75
2022/12/29 08:45:31;;;;;;;9.50;1.60;;;8.50;99.90;;;;;;5103838;28;20058;-74
2022/12/29 08:47:57;;;;;;;11.27;2.03;;;8.60;99.90;;;;;;5101444;28;20138;-75
2022/12/29 08:50:22;;;;;;;9.77;2.00;;;8.70;99.90;;;;;;5108661;28;20027;-76
2022/12/29 08:52:48;;;;;;;12.10;2.65;;;8.60;99.90;;;;;;5105877;28;20028;-75
2022/12/29 08:55:14;;;;;;;16.00;1.73;;;8.70;99.90;;;;;;5100637;28;20020;-76
2022/12/29 08:57:40;;;;;;;10.20;1.80;;;8.80;99.90;;;;;;5106496;28;20172;-77
2022/12/29 09:00:06;;;;;;;15.38;2.63;;;8.80;99.90;;;;;;5103600;28;20027;-75
2022/12/29 09:02:32;;;;;;;18.23;3.20;;;8.80;99.90;;;;;;5080299;28;20028;-75
2022/12/29 09:04:58;;;;;;;14.68;2.70;;;8.80;99.90;;;;;;5100084;28;20031;-75
2022/12/29 09:07:24;;;;;;;20.55;2.72;;;8.90;99.90;;;;;;5107858;28;20072;-76
2022/12/29 09:09:50;;;;;;;22.33;3.30;;;8.90;99.90;;;;;;5097763;28;20095;-76
2022/12/29 09:12:17;;;;;;;23.42;2.65;;;9.00;99.90;;;;;;5099224;28;20020;-75
2022/12/29 09:14:44;;;;;;;18.20;2.28;;;9.00;99.90;;;;;;5102425;28;20020;-83
2022/12/29 09:19:54;;;;;;;17.38;2.90;;;9.30;99.90;;;;;;5097430;28;20039;-75
2022/12/29 09:22:20;;;;;;;18.77;2.00;;;9.50;99.90;;;;;;5107249;28;20051;-74
2022/12/29 09:24:46;;;;;;;9.75;2.20;;;9.60;99.90;;;;;;5106839;28;20027;-74
2022/12/29 09:27:12;;;;;;;18.40;2.55;;;9.60;99.90;;;;;;5090490;28;20036;-75
2022/12/29 09:29:38;;;;;;;23.98;2.92;;;9.60;99.90;;;;;;5101440;28;20058;-75
2022/12/29 09:32:04;;;;;;;12.52;1.83;;;9.60;99.90;;;;;;5108436;28;20028;-76
2022/12/29 09:34:29;;;;;;;14.93;2.05;;;9.60;99.90;;;;;;5102102;28;20069;-74
2022/12/29 09:36:56;;;;;;;9.35;1.50;;;9.50;99.90;;;;;;5099783;28;20053;-76
2022/12/29 09:39:23;;;;;;;15.77;2.25;;;9.50;99.90;;;;;;5087017;28;20030;-75
2022/12/29 09:42:30;;;;;;;12.52;2.15;;;9.40;99.90;;;;;;5104407;28;20023;-76
2022/12/29 09:45:05;;;;;;;8.40;1.10;;;9.40;99.90;;;;;;5092185;28;20126;-74
2022/12/29 09:47:31;;;;;;;9.45;1.23;;;9.30;99.90;;;;;;5104790;28;20035;-76
2022/12/29 09:50:17;;;;;;;8.02;2.15;;;9.20;99.90;;;;;;5104448;28;20032;-76
2022/12/29 09:53:07;;;;;;;13.52;1.52;;;9.20;99.90;;;;;;5102642;28;20055;-74
2022/12/29 09:55:44;;;;;;;14.02;1.63;;;9.30;99.90;;;;;;5095338;27;20598;-77
2022/12/29 09:58:42;;;;;;;9.52;1.15;;;9.30;99.90;;;;;;5096402;28;20332;-73
2022/12/29 10:01:21;;;;;;;13.07;2.22;;;9.40;99.90;;;;;;5076254;28;20039;-73
2022/12/29 10:03:55;;;;;;;9.98;1.30;;;9.40;99.90;;;;;;5100234;28;20055;-75
2022/12/29 10:06:41;;;;;;;10.30;1.20;;;9.40;99.90;;;;;;5097136;28;20086;-76
2022/12/29 10:09:42;;;;;;;14.65;1.75;;;9.40;99.90;;;;;;5080817;28;20059;-75
2022/12/29 10:12:26;;;;;;;6.72;1.35;;;9.40;99.90;;;;;;5050075;28;20037;-75
2022/12/29 10:15:01;;;;;;;10.20;1.17;;;9.40;99.90;;;;;;5059654;28;20108;-76
2022/12/29 10:17:45;;;;;;;9.77;1.40;;;9.40;99.90;;;;;;5056679;28;20037;-73
2022/12/29 10:20:32;;;;;;;7.80;1.40;;;9.40;99.90;;;;;;5063668;28;20032;-73
2022/12/29 10:23:26;;;;;;;8.20;1.45;;;9.40;99.90;;;;;;5052196;28;20060;-72
2022/12/29 10:25:56;;;;;;;10.80;1.75;;;9.40;99.90;;;;;;5061266;28;20031;-74
2022/12/29 10:28:36;;;;;;;6.07;1.25;;;9.40;99.90;;;;;;5058411;28;20118;-77
2022/12/29 10:31:07;;;;;;;8.52;1.58;;;9.40;99.90;;;;;;5058043;28;20036;-77
2022/12/29 10:33:41;;;;;;;9.77;1.30;;;9.40;99.90;;;;;;5069612;28;20063;-77
2022/12/29 10:36:24;;;;;;;9.55;1.58;;;9.40;99.90;;;;;;5059328;28;20562;-68
2022/12/29 10:39:16;;;;;;;4.10;1.13;;;9.40;99.90;;;;;;5055918;28;20162;-67
2022/12/29 10:41:54;;;;;;;7.60;1.42;;;9.40;99.90;;;;;;5052639;28;20064;-68
2022/12/29 10:44:21;;;;;;;9.15;1.00;;;9.50;99.90;;;;;;5059018;28;20111;-72
2022/12/29 10:46:57;;;;;;;10.82;1.17;;;9.50;99.90;;;;;;5056882;28;20086;-73
2022/12/29 10:49:25;;;;;;;11.63;2.35;;;9.50;99.90;;;;;;5093720;28;20054;-73
2022/12/29 10:51:56;;;;;;;8.48;1.67;;;9.60;99.90;;;;;;5099745;28;20024;-73
2022/12/29 10:54:35;;;;;;;5.03;1.73;;;9.60;99.90;;;;;;5104751;28;20031;-71
2022/12/29 10:57:07;;;;;;;8.95;1.30;;;9.70;99.90;;;;;;5093476;28;20553;-72
2022/12/29 10:59:37;;;;;;;6.18;1.15;;;9.90;99.90;;;;;;5102336;28;20024;-71
2022/12/29 11:02:09;;;;;;;9.27;1.30;;;10.00;99.90;;;;;;5074987;28;20035;-72
2022/12/29 11:05:31;;;;;;;11.57;1.73;;;10.10;99.90;;;;;;5090792;28;20060;-72
2022/12/29 11:08:01;;;;;;;8.03;1.50;;;10.30;99.90;;;;;;5045355;28;20120;-72
2022/12/29 11:10:33;;;;;;;10.00;1.40;;;10.20;99.90;;;;;;5046000;28;20025;-73
2022/12/29 11:13:24;;;;;;;7.20;1.33;;;10.20;99.90;;;;;;5034815;28;20485;-72
2022/12/29 11:15:51;;;;;;;16.83;1.20;;;10.10;99.90;;;;;;5045142;28;20377;-72
2022/12/29 11:18:45;;;;;;;12.27;1.25;;;10.00;99.90;;;;;;5046906;28;20212;-72
2022/12/29 11:21:25;;;;;;;13.02;1.52;;;10.00;99.90;;;;;;5029681;28;20029;-72
2022/12/29 11:24:05;;;;;;;17.30;2.25;;;10.10;99.90;;;;;;5044840;28;20442;-73
2022/12/29 11:26:32;;;;;;;9.98;1.33;;;10.10;99.90;;;;;;5029291;28;20135;-72
2022/12/29 11:29:16;;;;;;;9.88;1.40;;;10.10;99.90;;;;;;5040031;28;20047;-73
2022/12/29 11:31:54;;;;;;;11.98;1.83;;;10.20;99.90;;;;;;5045894;28;20041;-72
2022/12/29 11:34:46;;;;;;;12.02;2.58;;;10.10;99.90;;;;;;5049091;28;20029;-74
2022/12/29 11:37:30;;;;;;;7.13;1.60;;;10.20;99.90;;;;;;5042943;28;20044;-72
2022/12/29 11:40:07;;;;;;;10.43;1.40;;;10.20;99.90;;;;;;5097307;28;20111;-73
2022/12/29 11:42:40;;;;;;;14.10;2.58;;;10.30;99.90;;;;;;5087236;28;20107;-72
2022/12/29 11:45:16;;;;;;;7.25;1.50;;;10.30;99.90;;;;;;5111249;28;20039;-72
2022/12/29 11:47:45;;;;;;;11.10;1.20;;;10.20;99.90;;;;;;5105354;27;20127;-72
2022/12/29 11:50:20;;;;;;;12.23;1.30;;;10.20;99.90;;;;;;5111434;28;20031;-73
2022/12/29 11:52:48;;;;;;;16.25;2.47;;;10.20;99.90;;;;;;5092135;28;20051;-73
2022/12/29 11:55:21;;;;;;;6.80;1.63;;;10.20;99.90;;;;;;5111014;28;20586;-72
2022/12/29 11:57:49;;;;;;;9.27;1.30;;;10.20;99.90;;;;;;5108865;28;20399;-72
2022/12/29 12:00:21;;;;;;;8.95;1.90;;;10.30;99.90;;;;;;5096756;27;20451;-72
2022/12/29 12:03:09;;;;;;;13.23;2.72;;;10.20;99.90;;;;;;5105645;28;20473;-72
2022/12/29 12:06:01;;;;;;;12.10;1.55;;;10.20;99.90;;;;;;5100770;28;20051;-73
2022/12/29 12:08:51;;;;;;;12.98;2.63;;;10.10;99.90;;;;;;5109160;28;20040;-73
2022/12/29 12:11:22;;;;;;;8.25;1.52;;;10.10;99.90;;;;;;5108564;28;20036;-73
2022/12/29 12:14:05;;;;;;;19.10;2.10;;;10.20;99.90;;;;;;5107797;28;20479;-72
2022/12/29 12:16:42;;;;;;;17.58;2.50;;;10.40;99.90;;;;;;5112327;28;20024;-72
2022/12/29 12:19:37;;;;;;;7.32;1.70;;;10.60;99.90;;;;;;5097577;28;20030;-72
2022/12/29 12:22:31;;;;;;;10.73;2.17;;;10.60;99.90;;;;;;5102977;28;20028;-69
2022/12/29 12:25:40;;;;;;;12.52;1.88;;;10.80;99.90;;;;;;5099479;28;20028;-73
2022/12/29 12:31:55;;;;;;;9.13;1.95;;;9.70;99.90;;;;;;5101673;28;20132;-77
2022/12/29 12:34:30;;;;;;;10.95;1.92;;;9.10;99.90;;;;;;5100944;27;20435;-75
2022/12/29 12:36:59;;;;;;;8.88;1.80;;;9.00;99.90;;;;;;5109890;28;20032;-76
2022/12/29 12:39:31;;;;;;;14.48;2.55;;;8.90;99.90;;;;;;5105281;28;20088;-75
2022/12/29 12:42:15;;;;;;;7.97;1.30;;;9.00;99.90;;;;;;5109408;28;20027;-75
2022/12/29 12:44:53;;;;;;;7.68;1.33;;;9.10;99.90;;;;;;5109202;28;20023;-73
2022/12/29 12:47:24;;;;;;;15.27;1.98;;;9.20;99.90;;;;;;5110655;28;20049;-74
2022/12/29 12:50:11;;;;;;;12.07;2.03;;;9.30;99.90;;;;;;5110076;28;20028;-73
2022/12/29 13:00:19;;;;;;;13.18;1.88;;;9.30;99.90;;;;;;5095436;28;20344;-72
2022/12/29 13:02:45;;;;;;;10.82;1.90;;;9.50;99.90;;;;;;5102890;28;20036;-71
2022/12/29 13:05:23;;;;;;;9.55;3.22;;;9.70;99.90;;;;;;5102717;28;20505;-72
2022/12/29 13:08:23;;;;;;;9.40;2.10;;;10.40;99.90;;;;;;5111456;28;20477;-72
2022/12/29 13:11:20;;;;;;;10.20;2.13;;;11.10;99.90;;;;;;5110428;28;20360;-71
2022/12/29 13:13:56;;;;;;;14.32;2.28;;;11.60;99.90;;;;;;5106243;28;20027;-71
2022/12/29 13:16:37;;;;;;;10.93;2.00;;;12.20;99.90;;;;;;5110730;28;20077;-73
2022/12/29 13:19:12;;;;;;;14.75;2.72;;;12.20;99.90;;;;;;5099107;28;20059;-71
2022/12/29 13:22:02;;;;;;;13.05;1.77;;;12.60;99.90;;;;;;5111064;28;20028;-71
2022/12/29 13:24:49;;;;;;;14.63;2.58;;;12.90;99.90;;;;;;5106950;28;20015;-72
2022/12/29 13:27:36;;;;;;;11.38;3.10;;;12.40;99.90;;;;;;5095591;28;20331;-73
2022/12/29 13:30:04;;;;;;;14.43;2.92;;;12.70;99.90;;;;;;5098491;28;20047;-74
2022/12/29 13:32:32;;;;;;;10.30;1.92;;;12.80;99.90;;;;;;5106787;28;20027;-74
2022/12/29 13:35:16;;;;;;;14.60;2.35;;;12.90;99.90;;;;;;5107832;28;20024;-73
2022/12/29 13:38:00;;;;;;;18.40;3.55;;;12.60;99.90;;;;;;5110460;28;20123;-72
2022/12/29 13:40:33;;;;;;;18.75;2.92;;;12.10;99.90;;;;;;5106024;27;20031;-73
2022/12/29 13:43:01;;;;;;;16.95;3.25;;;11.80;99.90;;;;;;5108522;28;20411;-72
2022/12/29 13:45:31;;;;;;;10.85;2.40;;;11.60;99.90;;;;;;5110605;28;20115;-72
2022/12/29 13:48:08;;;;;;;14.05;2.65;;;11.90;99.90;;;;;;5108639;28;20079;-72
2022/12/29 13:50:39;;;;;;;20.10;4.15;;;11.70;99.90;;;;;;5105573;28;20030;-72
2022/12/29 13:53:23;;;;;;;17.00;2.47;;;12.10;99.90;;;;;;5106217;28;20059;-72
2022/12/29 13:55:57;;;;;;;15.77;2.65;;;12.20;99.90;;;;;;5110449;28;20455;-71
2022/12/29 13:58:46;;;;;;;9.85;1.70;;;12.20;99.90;;;;;;5108770;28;20032;-72
2022/12/29 14:01:28;;;;;;;19.33;2.70;;;12.00;99.90;;;;;;5102133;28;20019;-72
2022/12/29 14:03:56;;;;;;;11.05;1.95;;;11.50;99.90;;;;;;5097139;28;20019;-72
2022/12/29 14:06:29;;;;;;;14.77;2.25;;;11.90;99.90;;;;;;5097668;28;20386;-73
2022/12/29 14:09:01;;;;;;;12.70;2.60;;;11.80;99.90;;;;;;5105848;28;20057;-72
2022/12/29 14:11:38;;;;;;;6.35;1.90;;;12.10;99.90;;;;;;5104712;28;20387;-72
2022/12/29 14:14:19;;;;;;;9.15;1.88;;;12.20;99.90;;;;;;5089693;28;20437;-72
2022/12/29 14:16:45;;;;;;;12.57;2.20;;;12.20;99.90;;;;;;5110099;28;20149;-72
2022/12/29 14:19:23;;;;;;;13.55;2.10;;;12.10;99.90;;;;;;5095540;28;20067;-73
2022/12/29 14:21:55;;;;;;;10.70;2.20;;;12.30;99.90;;;;;;5110270;28;20031;-73
2022/12/29 14:24:26;;;;;;;15.50;2.85;;;12.10;99.90;;;;;;5109771;28;20034;-72